sensor_id;sensor_type;location;lat;lon;timestamp;P1;durP1;ratioP1;P2;durP2;ratioP2
80293;SDS011;69594;43.516;1.498;2023-06-10T00:00:23;3.93;;;1.37;;
80293;SDS011;69594;43.516;1.498;2023-06-10T00:02:49;3.17;;;1.20;;
80293;SDS011;69594;43.516;1.498;2023-06-10T00:05:14;5.43;;;1.37;;
80293;SDS011;69594;43.516;1.498;2023-06-10T00:07:41;3.30;;;1.30;;
80293;SDS011;69594;43.516;1.498;2023-06-10T00:10:07;3.53;;;1.20;;
80293;SDS011;69594;43.516;1.498;2023-06-10T00:12:33;3.17;;;1.02;;
80293;SDS011;69594;43.516;1.498;2023-06-10T00:15:06;2.50;;;0.88;;
80293;SDS011;69594;43.516;1.498;2023-06-10T00:17:32;4.00;;;1.20;;
80293;SDS011;69594;43.516;1.498;2023-06-10T00:19:57;2.53;;;1.23;;
80293;SDS011;69594;43.516;1.498;2023-06-10T00:22:23;4.30;;;1.00;;
80293;SDS011;69594;43.516;1.498;2023-06-10T00:24:54;3.88;;;1.08;;
80293;SDS011;69594;43.516;1.498;2023-06-10T00:27:20;6.83;;;1.20;;
80293;SDS011;69594;43.516;1.498;2023-06-10T00:29:45;3.55;;;1.08;;
80293;SDS011;69594;43.516;1.498;2023-06-10T00:32:11;4.77;;;1.00;;
80293;SDS011;69594;43.516;1.498;2023-06-10T00:34:36;3.53;;;1.00;;
80293;SDS011;69594;43.516;1.498;2023-06-10T00:37:02;4.50;;;1.27;;
80293;SDS011;69594;43.516;1.498;2023-06-10T00:39:27;4.30;;;1.10;;
80293;SDS011;69594;43.516;1.498;2023-06-10T00:41:53;6.40;;;1.10;;
80293;SDS011;69594;43.516;1.498;2023-06-10T00:44:18;1.13;;;0.80;;
80293;SDS011;69594;43.516;1.498;2023-06-10T00:46:44;3.20;;;0.95;;
80293;SDS011;69594;43.516;1.498;2023-06-10T00:49:09;2.30;;;1.07;;
80293;SDS011;69594;43.516;1.498;2023-06-10T00:51:35;5.25;;;1.15;;
80293;SDS011;69594;43.516;1.498;2023-06-10T00:54:01;4.03;;;1.23;;
80293;SDS011;69594;43.516;1.498;2023-06-10T00:56:27;4.00;;;1.00;;
80293;SDS011;69594;43.516;1.498;2023-06-10T00:58:53;2.50;;;1.30;;
80293;SDS011;69594;43.516;1.498;2023-06-10T01:01:19;3.63;;;1.30;;
80293;SDS011;69594;43.516;1.498;2023-06-10T01:03:45;5.85;;;1.42;;
80293;SDS011;69594;43.516;1.498;2023-06-10T01:11:43;4.13;;;1.17;;
80293;SDS011;69594;43.516;1.498;2023-06-10T01:14:16;3.65;;;1.00;;
80293;SDS011;69594;43.516;1.498;2023-06-10T01:16:42;5.87;;;1.23;;
80293;SDS011;69594;43.516;1.498;2023-06-10T01:19:11;4.47;;;1.30;;
80293;SDS011;69594;43.516;1.498;2023-06-10T01:21:38;5.22;;;0.90;;
80293;SDS011;69594;43.516;1.498;2023-06-10T01:24:04;2.15;;;1.10;;
80293;SDS011;69594;43.516;1.498;2023-06-10T01:26:33;3.67;;;1.20;;
80293;SDS011;69594;43.516;1.498;2023-06-10T01:34:17;3.83;;;1.17;;
80293;SDS011;69594;43.516;1.498;2023-06-10T01:36:47;6.47;;;1.40;;
80293;SDS011;69594;43.516;1.498;2023-06-10T01:39:17;2.55;;;1.10;;
80293;SDS011;69594;43.516;1.498;2023-06-10T01:41:46;2.60;;;1.00;;
80293;SDS011;69594;43.516;1.498;2023-06-10T01:44:17;3.80;;;1.20;;
80293;SDS011;69594;43.516;1.498;2023-06-10T01:46:46;3.45;;;1.17;;
80293;SDS011;69594;43.516;1.498;2023-06-10T01:49:11;1.93;;;1.00;;
80293;SDS011;69594;43.516;1.498;2023-06-10T01:51:38;4.07;;;0.80;;
80293;SDS011;69594;43.516;1.498;2023-06-10T01:54:03;2.43;;;0.70;;
80293;SDS011;69594;43.516;1.498;2023-06-10T01:56:29;5.95;;;1.00;;
80293;SDS011;69594;43.516;1.498;2023-06-10T01:58:55;6.90;;;1.60;;
80293;SDS011;69594;43.516;1.498;2023-06-10T02:01:24;3.53;;;1.05;;
80293;SDS011;69594;43.516;1.498;2023-06-10T02:03:50;5.90;;;0.77;;
80293;SDS011;69594;43.516;1.498;2023-06-10T02:06:15;4.47;;;0.80;;
80293;SDS011;69594;43.516;1.498;2023-06-10T02:08:41;4.03;;;0.80;;
80293;SDS011;69594;43.516;1.498;2023-06-10T02:11:07;3.17;;;0.77;;
80293;SDS011;69594;43.516;1.498;2023-06-10T02:13:32;5.23;;;1.00;;
80293;SDS011;69594;43.516;1.498;2023-06-10T02:15:58;4.50;;;1.13;;
80293;SDS011;69594;43.516;1.498;2023-06-10T02:18:24;2.47;;;0.93;;
80293;SDS011;69594;43.516;1.498;2023-06-10T02:20:52;2.70;;;0.93;;
80293;SDS011;69594;43.516;1.498;2023-06-10T02:23:17;1.77;;;0.90;;
80293;SDS011;69594;43.516;1.498;2023-06-10T02:25:42;1.10;;;0.80;;
80293;SDS011;69594;43.516;1.498;2023-06-10T02:28:08;1.30;;;0.73;;
80293;SDS011;69594;43.516;1.498;2023-06-10T02:30:35;1.53;;;1.13;;
80293;SDS011;69594;43.516;1.498;2023-06-10T02:33:00;2.60;;;0.85;;
80293;SDS011;69594;43.516;1.498;2023-06-10T02:35:26;3.65;;;0.90;;
80293;SDS011;69594;43.516;1.498;2023-06-10T02:37:51;3.57;;;0.77;;
80293;SDS011;69594;43.516;1.498;2023-06-10T02:40:17;3.93;;;1.10;;
80293;SDS011;69594;43.516;1.498;2023-06-10T02:42:42;3.73;;;1.07;;
80293;SDS011;69594;43.516;1.498;2023-06-10T02:45:08;3.83;;;0.80;;
80293;SDS011;69594;43.516;1.498;2023-06-10T02:47:33;5.53;;;1.10;;
80293;SDS011;69594;43.516;1.498;2023-06-10T02:50:02;5.32;;;1.17;;
80293;SDS011;69594;43.516;1.498;2023-06-10T02:52:28;3.85;;;1.02;;
80293;SDS011;69594;43.516;1.498;2023-06-10T02:54:55;2.03;;;0.63;;
80293;SDS011;69594;43.516;1.498;2023-06-10T02:57:20;5.85;;;1.15;;
80293;SDS011;69594;43.516;1.498;2023-06-10T02:59:45;6.77;;;1.30;;
80293;SDS011;69594;43.516;1.498;2023-06-10T03:02:11;3.37;;;0.80;;
80293;SDS011;69594;43.516;1.498;2023-06-10T03:04:37;1.92;;;0.70;;
80293;SDS011;69594;43.516;1.498;2023-06-10T03:07:03;3.23;;;0.93;;
80293;SDS011;69594;43.516;1.498;2023-06-10T03:09:32;4.53;;;1.10;;
80293;SDS011;69594;43.516;1.498;2023-06-10T03:11:58;2.80;;;0.90;;
80293;SDS011;69594;43.516;1.498;2023-06-10T03:14:24;2.07;;;0.90;;
80293;SDS011;69594;43.516;1.498;2023-06-10T03:16:50;5.28;;;1.20;;
80293;SDS011;69594;43.516;1.498;2023-06-10T03:19:15;1.43;;;1.10;;
80293;SDS011;69594;43.516;1.498;2023-06-10T03:21:43;5.43;;;0.80;;
80293;SDS011;69594;43.516;1.498;2023-06-10T03:24:09;3.35;;;0.93;;
80293;SDS011;69594;43.516;1.498;2023-06-10T03:26:36;5.18;;;0.98;;
80293;SDS011;69594;43.516;1.498;2023-06-10T03:29:01;2.10;;;1.10;;
80293;SDS011;69594;43.516;1.498;2023-06-10T03:31:27;1.60;;;0.90;;
80293;SDS011;69594;43.516;1.498;2023-06-10T03:33:52;1.30;;;0.83;;
80293;SDS011;69594;43.516;1.498;2023-06-10T03:36:18;1.50;;;0.90;;
80293;SDS011;69594;43.516;1.498;2023-06-10T03:38:44;2.83;;;1.20;;
80293;SDS011;69594;43.516;1.498;2023-06-10T03:41:10;6.10;;;1.00;;
80293;SDS011;69594;43.516;1.498;2023-06-10T03:43:37;3.37;;;1.00;;
80293;SDS011;69594;43.516;1.498;2023-06-10T03:46:05;5.18;;;1.55;;
80293;SDS011;69594;43.516;1.498;2023-06-10T03:48:30;3.92;;;0.90;;
80293;SDS011;69594;43.516;1.498;2023-06-10T03:50:56;7.20;;;1.47;;
80293;SDS011;69594;43.516;1.498;2023-06-10T03:53:21;2.65;;;0.93;;
80293;SDS011;69594;43.516;1.498;2023-06-10T03:55:47;3.60;;;0.90;;
80293;SDS011;69594;43.516;1.498;2023-06-10T03:58:13;2.40;;;1.00;;
80293;SDS011;69594;43.516;1.498;2023-06-10T04:00:39;1.90;;;1.02;;
80293;SDS011;69594;43.516;1.498;2023-06-10T04:03:09;2.83;;;0.90;;
80293;SDS011;69594;43.516;1.498;2023-06-10T04:05:39;7.45;;;1.70;;
80293;SDS011;69594;43.516;1.498;2023-06-10T04:08:05;12.90;;;3.13;;
80293;SDS011;69594;43.516;1.498;2023-06-10T04:10:31;6.57;;;3.35;;
80293;SDS011;69594;43.516;1.498;2023-06-10T04:12:57;5.33;;;2.87;;
80293;SDS011;69594;43.516;1.498;2023-06-10T04:15:22;8.33;;;2.70;;
80293;SDS011;69594;43.516;1.498;2023-06-10T04:17:48;6.80;;;2.88;;
80293;SDS011;69594;43.516;1.498;2023-06-10T04:20:14;6.43;;;3.00;;
80293;SDS011;69594;43.516;1.498;2023-06-10T04:22:40;6.03;;;2.75;;
80293;SDS011;69594;43.516;1.498;2023-06-10T04:25:06;7.60;;;2.50;;
80293;SDS011;69594;43.516;1.498;2023-06-10T04:27:32;7.53;;;2.28;;
80293;SDS011;69594;43.516;1.498;2023-06-10T04:29:58;5.83;;;2.40;;
80293;SDS011;69594;43.516;1.498;2023-06-10T04:32:23;9.37;;;2.30;;
80293;SDS011;69594;43.516;1.498;2023-06-10T04:34:49;5.80;;;1.53;;
80293;SDS011;69594;43.516;1.498;2023-06-10T04:37:14;5.20;;;1.30;;
80293;SDS011;69594;43.516;1.498;2023-06-10T04:39:40;7.10;;;2.07;;
80293;SDS011;69594;43.516;1.498;2023-06-10T04:42:06;3.83;;;2.03;;
80293;SDS011;69594;43.516;1.498;2023-06-10T04:44:32;6.67;;;2.40;;
80293;SDS011;69594;43.516;1.498;2023-06-10T04:46:57;7.93;;;2.30;;
80293;SDS011;69594;43.516;1.498;2023-06-10T04:49:22;6.40;;;2.30;;
80293;SDS011;69594;43.516;1.498;2023-06-10T04:51:48;10.33;;;2.00;;
80293;SDS011;69594;43.516;1.498;2023-06-10T04:54:13;7.90;;;2.17;;
80293;SDS011;69594;43.516;1.498;2023-06-10T04:56:39;6.17;;;1.70;;
80293;SDS011;69594;43.516;1.498;2023-06-10T04:59:04;2.40;;;1.52;;
80293;SDS011;69594;43.516;1.498;2023-06-10T05:01:30;2.07;;;1.30;;
80293;SDS011;69594;43.516;1.498;2023-06-10T05:03:55;5.00;;;1.37;;
80293;SDS011;69594;43.516;1.498;2023-06-10T05:06:21;3.60;;;1.33;;
80293;SDS011;69594;43.516;1.498;2023-06-10T05:08:46;2.60;;;1.15;;
80293;SDS011;69594;43.516;1.498;2023-06-10T05:11:12;2.50;;;1.53;;
80293;SDS011;69594;43.516;1.498;2023-06-10T05:13:37;3.77;;;1.60;;
80293;SDS011;69594;43.516;1.498;2023-06-10T05:16:05;4.93;;;1.50;;
80293;SDS011;69594;43.516;1.498;2023-06-10T05:18:30;4.47;;;2.50;;
80293;SDS011;69594;43.516;1.498;2023-06-10T05:20:56;3.67;;;1.50;;
80293;SDS011;69594;43.516;1.498;2023-06-10T05:23:21;6.57;;;2.03;;
80293;SDS011;69594;43.516;1.498;2023-06-10T05:25:47;5.70;;;1.97;;
80293;SDS011;69594;43.516;1.498;2023-06-10T05:28:12;4.20;;;1.92;;
80293;SDS011;69594;43.516;1.498;2023-06-10T05:30:38;3.53;;;1.60;;
80293;SDS011;69594;43.516;1.498;2023-06-10T05:33:04;8.83;;;2.30;;
80293;SDS011;69594;43.516;1.498;2023-06-10T05:35:30;5.25;;;1.42;;
80293;SDS011;69594;43.516;1.498;2023-06-10T05:37:55;4.80;;;1.92;;
80293;SDS011;69594;43.516;1.498;2023-06-10T05:40:21;4.37;;;1.70;;
80293;SDS011;69594;43.516;1.498;2023-06-10T05:42:46;3.77;;;1.93;;
80293;SDS011;69594;43.516;1.498;2023-06-10T05:45:12;5.50;;;1.20;;
80293;SDS011;69594;43.516;1.498;2023-06-10T05:47:37;4.03;;;1.50;;
80293;SDS011;69594;43.516;1.498;2023-06-10T05:50:03;6.38;;;1.80;;
80293;SDS011;69594;43.516;1.498;2023-06-10T05:52:34;4.20;;;1.60;;
80293;SDS011;69594;43.516;1.498;2023-06-10T05:55:01;6.15;;;1.58;;
80293;SDS011;69594;43.516;1.498;2023-06-10T05:57:30;6.45;;;1.83;;
80293;SDS011;69594;43.516;1.498;2023-06-10T05:59:55;5.23;;;1.53;;
80293;SDS011;69594;43.516;1.498;2023-06-10T06:02:21;5.88;;;1.52;;
80293;SDS011;69594;43.516;1.498;2023-06-10T06:04:46;5.20;;;1.20;;
80293;SDS011;69594;43.516;1.498;2023-06-10T06:07:11;4.00;;;1.40;;
80293;SDS011;69594;43.516;1.498;2023-06-10T06:09:37;7.47;;;1.67;;
80293;SDS011;69594;43.516;1.498;2023-06-10T06:12:02;5.05;;;1.25;;
80293;SDS011;69594;43.516;1.498;2023-06-10T06:14:31;3.40;;;1.60;;
80293;SDS011;69594;43.516;1.498;2023-06-10T06:16:57;6.78;;;1.50;;
80293;SDS011;69594;43.516;1.498;2023-06-10T06:19:23;3.40;;;1.37;;
80293;SDS011;69594;43.516;1.498;2023-06-10T06:21:48;5.32;;;1.30;;
80293;SDS011;69594;43.516;1.498;2023-06-10T06:24:14;6.37;;;1.50;;
80293;SDS011;69594;43.516;1.498;2023-06-10T06:26:40;4.13;;;1.42;;
80293;SDS011;69594;43.516;1.498;2023-06-10T06:29:06;6.77;;;1.97;;
80293;SDS011;69594;43.516;1.498;2023-06-10T06:31:31;4.50;;;1.53;;
80293;SDS011;69594;43.516;1.498;2023-06-10T06:33:57;3.20;;;1.57;;
80293;SDS011;69594;43.516;1.498;2023-06-10T06:36:22;7.50;;;1.57;;
80293;SDS011;69594;43.516;1.498;2023-06-10T06:38:48;2.13;;;1.50;;
80293;SDS011;69594;43.516;1.498;2023-06-10T06:41:13;4.63;;;1.60;;
80293;SDS011;69594;43.516;1.498;2023-06-10T06:43:38;3.63;;;1.60;;
80293;SDS011;69594;43.516;1.498;2023-06-10T06:46:04;4.40;;;1.50;;
80293;SDS011;69594;43.516;1.498;2023-06-10T06:48:30;6.97;;;1.70;;
80293;SDS011;69594;43.516;1.498;2023-06-10T06:50:55;3.77;;;1.37;;
80293;SDS011;69594;43.516;1.498;2023-06-10T06:53:22;3.22;;;1.27;;
80293;SDS011;69594;43.516;1.498;2023-06-10T06:55:48;3.83;;;1.50;;
80293;SDS011;69594;43.516;1.498;2023-06-10T06:58:13;3.50;;;1.40;;
80293;SDS011;69594;43.516;1.498;2023-06-10T07:00:39;5.60;;;1.70;;
80293;SDS011;69594;43.516;1.498;2023-06-10T07:03:04;4.40;;;1.60;;
80293;SDS011;69594;43.516;1.498;2023-06-10T07:05:30;5.33;;;1.60;;
80293;SDS011;69594;43.516;1.498;2023-06-10T07:07:56;3.50;;;1.63;;
80293;SDS011;69594;43.516;1.498;2023-06-10T07:10:21;6.45;;;1.50;;
80293;SDS011;69594;43.516;1.498;2023-06-10T07:12:48;5.25;;;1.55;;
80293;SDS011;69594;43.516;1.498;2023-06-10T07:15:13;4.03;;;1.53;;
80293;SDS011;69594;43.516;1.498;2023-06-10T07:17:38;1.67;;;1.13;;
80293;SDS011;69594;43.516;1.498;2023-06-10T07:20:04;4.93;;;1.67;;
80293;SDS011;69594;43.516;1.498;2023-06-10T07:22:30;3.58;;;1.70;;
80293;SDS011;69594;43.516;1.498;2023-06-10T07:24:55;4.23;;;1.20;;
80293;SDS011;69594;43.516;1.498;2023-06-10T07:27:21;6.82;;;1.45;;
80293;SDS011;69594;43.516;1.498;2023-06-10T07:29:46;3.50;;;1.20;;
80293;SDS011;69594;43.516;1.498;2023-06-10T07:32:12;2.57;;;1.33;;
80293;SDS011;69594;43.516;1.498;2023-06-10T07:34:37;3.77;;;1.50;;
80293;SDS011;69594;43.516;1.498;2023-06-10T07:37:03;2.20;;;1.30;;
80293;SDS011;69594;43.516;1.498;2023-06-10T07:39:29;3.88;;;1.40;;
80293;SDS011;69594;43.516;1.498;2023-06-10T07:41:54;4.57;;;1.50;;
80293;SDS011;69594;43.516;1.498;2023-06-10T07:44:24;5.68;;;1.55;;
80293;SDS011;69594;43.516;1.498;2023-06-10T07:46:50;2.70;;;1.30;;
80293;SDS011;69594;43.516;1.498;2023-06-10T07:49:16;3.97;;;1.20;;
80293;SDS011;69594;43.516;1.498;2023-06-10T07:51:41;3.63;;;1.30;;
80293;SDS011;69594;43.516;1.498;2023-06-10T07:54:07;6.40;;;1.60;;
80293;SDS011;69594;43.516;1.498;2023-06-10T07:56:33;4.10;;;1.50;;
80293;SDS011;69594;43.516;1.498;2023-06-10T07:58:59;3.92;;;1.35;;
80293;SDS011;69594;43.516;1.498;2023-06-10T08:01:30;5.85;;;1.45;;
80293;SDS011;69594;43.516;1.498;2023-06-10T08:03:56;3.33;;;1.30;;
80293;SDS011;69594;43.516;1.498;2023-06-10T08:06:21;2.80;;;1.63;;
80293;SDS011;69594;43.516;1.498;2023-06-10T08:08:47;3.63;;;1.60;;
80293;SDS011;69594;43.516;1.498;2023-06-10T08:11:12;2.70;;;1.23;;
80293;SDS011;69594;43.516;1.498;2023-06-10T08:13:38;4.60;;;1.57;;
80293;SDS011;69594;43.516;1.498;2023-06-10T08:16:04;4.28;;;1.20;;
80293;SDS011;69594;43.516;1.498;2023-06-10T08:18:30;3.95;;;1.30;;
80293;SDS011;69594;43.516;1.498;2023-06-10T08:20:56;2.33;;;1.50;;
80293;SDS011;69594;43.516;1.498;2023-06-10T08:23:21;3.55;;;1.30;;
80293;SDS011;69594;43.516;1.498;2023-06-10T08:25:47;1.80;;;1.30;;
80293;SDS011;69594;43.516;1.498;2023-06-10T08:28:12;4.43;;;1.20;;
80293;SDS011;69594;43.516;1.498;2023-06-10T08:30:38;3.07;;;1.27;;
80293;SDS011;69594;43.516;1.498;2023-06-10T08:33:04;4.53;;;1.40;;
80293;SDS011;69594;43.516;1.498;2023-06-10T08:35:30;1.67;;;1.10;;
80293;SDS011;69594;43.516;1.498;2023-06-10T08:37:55;2.87;;;1.70;;
80293;SDS011;69594;43.516;1.498;2023-06-10T08:40:21;2.97;;;1.60;;
80293;SDS011;69594;43.516;1.498;2023-06-10T08:42:52;2.37;;;1.47;;
80293;SDS011;69594;43.516;1.498;2023-06-10T08:45:25;1.80;;;1.42;;
80293;SDS011;69594;43.516;1.498;2023-06-10T08:47:56;2.40;;;1.67;;
80293;SDS011;69594;43.516;1.498;2023-06-10T08:50:23;2.80;;;1.23;;
80293;SDS011;69594;43.516;1.498;2023-06-10T08:52:50;1.40;;;1.30;;
80293;SDS011;69594;43.516;1.498;2023-06-10T08:55:18;3.45;;;1.50;;
80293;SDS011;69594;43.516;1.498;2023-06-10T08:57:53;3.95;;;1.73;;
80293;SDS011;69594;43.516;1.498;2023-06-10T09:00:19;2.33;;;1.30;;
80293;SDS011;69594;43.516;1.498;2023-06-10T09:02:44;3.58;;;1.60;;
80293;SDS011;69594;43.516;1.498;2023-06-10T09:05:11;3.15;;;1.50;;
80293;SDS011;69594;43.516;1.498;2023-06-10T09:07:38;3.40;;;1.50;;
80293;SDS011;69594;43.516;1.498;2023-06-10T09:10:04;5.50;;;2.53;;
80293;SDS011;69594;43.516;1.498;2023-06-10T09:12:32;6.85;;;4.57;;
80293;SDS011;69594;43.516;1.498;2023-06-10T09:15:00;4.40;;;1.42;;
80293;SDS011;69594;43.516;1.498;2023-06-10T09:17:27;2.92;;;1.55;;
80293;SDS011;69594;43.516;1.498;2023-06-10T09:19:53;3.13;;;1.70;;
80293;SDS011;69594;43.516;1.498;2023-06-10T09:22:21;4.13;;;1.53;;
80293;SDS011;69594;43.516;1.498;2023-06-10T09:24:47;2.97;;;1.45;;
80293;SDS011;69594;43.516;1.498;2023-06-10T09:27:12;8.25;;;3.05;;
80293;SDS011;69594;43.516;1.498;2023-06-10T09:29:51;1.40;;;1.30;;
80293;SDS011;69594;43.516;1.498;2023-06-10T09:32:18;2.38;;;1.50;;
80293;SDS011;69594;43.516;1.498;2023-06-10T09:34:45;2.40;;;1.47;;
80293;SDS011;69594;43.516;1.498;2023-06-10T09:37:11;2.13;;;1.40;;
80293;SDS011;69594;43.516;1.498;2023-06-10T09:39:38;3.33;;;1.40;;
80293;SDS011;69594;43.516;1.498;2023-06-10T09:42:17;1.40;;;1.27;;
80293;SDS011;69594;43.516;1.498;2023-06-10T09:44:50;3.00;;;1.70;;
80293;SDS011;69594;43.516;1.498;2023-06-10T09:47:20;2.63;;;1.30;;
80293;SDS011;69594;43.516;1.498;2023-06-10T09:49:47;1.67;;;1.33;;
80293;SDS011;69594;43.516;1.498;2023-06-10T09:52:13;5.30;;;2.13;;
80293;SDS011;69594;43.516;1.498;2023-06-10T09:54:38;3.10;;;1.23;;
80293;SDS011;69594;43.516;1.498;2023-06-10T09:57:06;3.40;;;1.30;;
80293;SDS011;69594;43.516;1.498;2023-06-10T09:59:34;2.22;;;1.10;;
80293;SDS011;69594;43.516;1.498;2023-06-10T10:02:00;2.10;;;1.25;;
80293;SDS011;69594;43.516;1.498;2023-06-10T10:04:26;2.83;;;1.07;;
80293;SDS011;69594;43.516;1.498;2023-06-10T10:06:53;2.67;;;1.30;;
80293;SDS011;69594;43.516;1.498;2023-06-10T10:09:19;2.53;;;1.03;;
80293;SDS011;69594;43.516;1.498;2023-06-10T10:11:44;2.40;;;1.10;;
80293;SDS011;69594;43.516;1.498;2023-06-10T10:14:12;1.92;;;1.50;;
80293;SDS011;69594;43.516;1.498;2023-06-10T10:16:41;2.23;;;1.00;;
80293;SDS011;69594;43.516;1.498;2023-06-10T10:19:10;1.98;;;1.08;;
80293;SDS011;69594;43.516;1.498;2023-06-10T10:21:45;3.08;;;1.17;;
80293;SDS011;69594;43.516;1.498;2023-06-10T10:24:25;1.65;;;1.17;;
80293;SDS011;69594;43.516;1.498;2023-06-10T10:27:00;2.65;;;1.33;;
80293;SDS011;69594;43.516;1.498;2023-06-10T10:29:31;4.43;;;1.30;;
80293;SDS011;69594;43.516;1.498;2023-06-10T10:32:03;3.47;;;1.30;;
80293;SDS011;69594;43.516;1.498;2023-06-10T10:34:59;2.28;;;1.00;;
80293;SDS011;69594;43.516;1.498;2023-06-10T10:37:32;1.70;;;1.08;;
80293;SDS011;69594;43.516;1.498;2023-06-10T10:39:58;3.97;;;1.37;;
80293;SDS011;69594;43.516;1.498;2023-06-10T10:42:25;1.75;;;1.20;;
80293;SDS011;69594;43.516;1.498;2023-06-10T10:44:51;1.80;;;1.00;;
80293;SDS011;69594;43.516;1.498;2023-06-10T10:47:18;2.40;;;1.15;;
80293;SDS011;69594;43.516;1.498;2023-06-10T10:49:48;1.20;;;1.10;;
80293;SDS011;69594;43.516;1.498;2023-06-10T10:52:18;1.67;;;1.10;;
80293;SDS011;69594;43.516;1.498;2023-06-10T10:54:45;2.45;;;0.77;;
80293;SDS011;69594;43.516;1.498;2023-06-10T10:57:14;5.47;;;1.00;;
80293;SDS011;69594;43.516;1.498;2023-06-10T10:59:45;6.80;;;1.27;;
80293;SDS011;69594;43.516;1.498;2023-06-10T11:02:17;5.83;;;1.03;;
80293;SDS011;69594;43.516;1.498;2023-06-10T11:04:46;2.47;;;1.48;;
80293;SDS011;69594;43.516;1.498;2023-06-10T11:07:13;3.70;;;1.08;;
80293;SDS011;69594;43.516;1.498;2023-06-10T11:10:00;1.83;;;0.90;;
80293;SDS011;69594;43.516;1.498;2023-06-10T11:12:40;1.38;;;0.80;;
80293;SDS011;69594;43.516;1.498;2023-06-10T11:15:06;1.20;;;0.87;;
80293;SDS011;69594;43.516;1.498;2023-06-10T11:17:32;2.30;;;1.17;;
80293;SDS011;69594;43.516;1.498;2023-06-10T11:19:58;1.80;;;1.10;;
80293;SDS011;69594;43.516;1.498;2023-06-10T11:22:24;2.95;;;1.00;;
80293;SDS011;69594;43.516;1.498;2023-06-10T11:24:49;1.70;;;0.90;;
80293;SDS011;69594;43.516;1.498;2023-06-10T11:27:19;1.83;;;1.00;;
80293;SDS011;69594;43.516;1.498;2023-06-10T11:29:56;3.60;;;1.10;;
80293;SDS011;69594;43.516;1.498;2023-06-10T11:32:31;1.38;;;1.00;;
80293;SDS011;69594;43.516;1.498;2023-06-10T11:34:59;2.67;;;1.10;;
80293;SDS011;69594;43.516;1.498;2023-06-10T11:37:27;1.90;;;0.90;;
80293;SDS011;69594;43.516;1.498;2023-06-10T11:39:53;2.83;;;1.08;;
80293;SDS011;69594;43.516;1.498;2023-06-10T11:42:20;1.85;;;1.10;;
80293;SDS011;69594;43.516;1.498;2023-06-10T11:44:49;1.87;;;0.70;;
80293;SDS011;69594;43.516;1.498;2023-06-10T11:47:21;2.75;;;1.10;;
80293;SDS011;69594;43.516;1.498;2023-06-10T11:49:55;1.02;;;0.73;;
80293;SDS011;69594;43.516;1.498;2023-06-10T11:52:31;1.33;;;1.00;;
80293;SDS011;69594;43.516;1.498;2023-06-10T11:54:58;1.30;;;0.93;;
80293;SDS011;69594;43.516;1.498;2023-06-10T11:57:24;1.10;;;1.00;;
80293;SDS011;69594;43.516;1.498;2023-06-10T11:59:50;1.33;;;0.80;;
80293;SDS011;69594;43.516;1.498;2023-06-10T12:02:15;1.95;;;1.02;;
80293;SDS011;69594;43.516;1.498;2023-06-10T12:04:41;1.42;;;1.10;;
80293;SDS011;69594;43.516;1.498;2023-06-10T12:07:07;2.27;;;1.07;;
80293;SDS011;69594;43.516;1.498;2023-06-10T12:09:32;1.23;;;0.83;;
80293;SDS011;69594;43.516;1.498;2023-06-10T12:19:58;1.00;;;0.90;;
80293;SDS011;69594;43.516;1.498;2023-06-10T12:22:24;1.73;;;0.93;;
80293;SDS011;69594;43.516;1.498;2023-06-10T12:27:27;1.50;;;0.90;;
80293;SDS011;69594;43.516;1.498;2023-06-10T12:29:54;2.95;;;0.90;;
80293;SDS011;69594;43.516;1.498;2023-06-10T12:32:34;1.58;;;1.10;;
80293;SDS011;69594;43.516;1.498;2023-06-10T12:35:21;1.73;;;1.15;;
80293;SDS011;69594;43.516;1.498;2023-06-10T12:40:27;1.73;;;0.90;;
80293;SDS011;69594;43.516;1.498;2023-06-10T12:42:54;2.53;;;1.17;;
80293;SDS011;69594;43.516;1.498;2023-06-10T12:45:30;1.65;;;1.23;;
80293;SDS011;69594;43.516;1.498;2023-06-10T12:48:04;1.67;;;0.85;;
80293;SDS011;69594;43.516;1.498;2023-06-10T12:50:31;2.17;;;0.95;;
80293;SDS011;69594;43.516;1.498;2023-06-10T12:52:59;1.20;;;0.80;;
80293;SDS011;69594;43.516;1.498;2023-06-10T12:55:25;2.30;;;1.00;;
80293;SDS011;69594;43.516;1.498;2023-06-10T12:57:51;1.58;;;0.98;;
80293;SDS011;69594;43.516;1.498;2023-06-10T13:00:20;1.60;;;1.00;;
80293;SDS011;69594;43.516;1.498;2023-06-10T13:02:45;2.05;;;1.10;;
80293;SDS011;69594;43.516;1.498;2023-06-10T13:05:11;1.97;;;1.10;;
80293;SDS011;69594;43.516;1.498;2023-06-10T13:07:36;1.95;;;1.05;;
80293;SDS011;69594;43.516;1.498;2023-06-10T13:10:02;1.53;;;1.10;;
80293;SDS011;69594;43.516;1.498;2023-06-10T13:12:29;0.90;;;0.80;;
80293;SDS011;69594;43.516;1.498;2023-06-10T13:14:55;1.00;;;0.80;;
80293;SDS011;69594;43.516;1.498;2023-06-10T13:17:21;1.25;;;1.15;;
80293;SDS011;69594;43.516;1.498;2023-06-10T13:19:49;3.13;;;1.13;;
80293;SDS011;69594;43.516;1.498;2023-06-10T13:22:14;1.43;;;0.87;;
80293;SDS011;69594;43.516;1.498;2023-06-10T13:24:40;2.42;;;1.10;;
80293;SDS011;69594;43.516;1.498;2023-06-10T13:27:09;1.38;;;0.90;;
80293;SDS011;69594;43.516;1.498;2023-06-10T13:29:34;1.77;;;0.90;;
80293;SDS011;69594;43.516;1.498;2023-06-10T13:31:59;1.50;;;0.93;;
80293;SDS011;69594;43.516;1.498;2023-06-10T13:34:25;0.70;;;0.70;;
80293;SDS011;69594;43.516;1.498;2023-06-10T13:36:50;1.50;;;1.17;;
80293;SDS011;69594;43.516;1.498;2023-06-10T13:39:16;1.50;;;1.00;;
80293;SDS011;69594;43.516;1.498;2023-06-10T13:41:41;2.57;;;0.90;;
80293;SDS011;69594;43.516;1.498;2023-06-10T13:44:07;2.87;;;1.13;;
80293;SDS011;69594;43.516;1.498;2023-06-10T13:46:35;1.90;;;0.90;;
80293;SDS011;69594;43.516;1.498;2023-06-10T13:49:01;1.58;;;0.90;;
80293;SDS011;69594;43.516;1.498;2023-06-10T13:51:26;1.50;;;0.80;;
80293;SDS011;69594;43.516;1.498;2023-06-10T13:53:52;1.37;;;1.10;;
80293;SDS011;69594;43.516;1.498;2023-06-10T13:56:17;4.30;;;2.60;;
80293;SDS011;69594;43.516;1.498;2023-06-10T13:58:43;2.77;;;1.50;;
80293;SDS011;69594;43.516;1.498;2023-06-10T14:01:10;2.35;;;0.88;;
80293;SDS011;69594;43.516;1.498;2023-06-10T14:03:35;1.52;;;0.95;;
80293;SDS011;69594;43.516;1.498;2023-06-10T14:06:01;2.80;;;1.00;;
80293;SDS011;69594;43.516;1.498;2023-06-10T14:08:27;1.17;;;0.90;;
80293;SDS011;69594;43.516;1.498;2023-06-10T14:10:52;3.13;;;1.03;;
80293;SDS011;69594;43.516;1.498;2023-06-10T14:13:19;1.67;;;1.00;;
80293;SDS011;69594;43.516;1.498;2023-06-10T14:15:44;2.30;;;1.23;;
80293;SDS011;69594;43.516;1.498;2023-06-10T14:18:10;2.37;;;0.70;;
80293;SDS011;69594;43.516;1.498;2023-06-10T14:20:36;1.13;;;1.00;;
80293;SDS011;69594;43.516;1.498;2023-06-10T14:23:02;1.83;;;0.87;;
80293;SDS011;69594;43.516;1.498;2023-06-10T14:25:27;2.83;;;1.20;;
80293;SDS011;69594;43.516;1.498;2023-06-10T14:27:53;1.63;;;1.00;;
80293;SDS011;69594;43.516;1.498;2023-06-10T14:30:18;1.77;;;1.10;;
80293;SDS011;69594;43.516;1.498;2023-06-10T14:32:44;2.92;;;1.75;;
80293;SDS011;69594;43.516;1.498;2023-06-10T14:35:10;3.35;;;1.30;;
80293;SDS011;69594;43.516;1.498;2023-06-10T14:37:35;1.23;;;1.00;;
80293;SDS011;69594;43.516;1.498;2023-06-10T14:40:03;1.65;;;0.70;;
80293;SDS011;69594;43.516;1.498;2023-06-10T14:42:30;1.40;;;0.90;;
80293;SDS011;69594;43.516;1.498;2023-06-10T14:44:57;1.15;;;0.88;;
80293;SDS011;69594;43.516;1.498;2023-06-10T14:47:23;1.17;;;1.00;;
80293;SDS011;69594;43.516;1.498;2023-06-10T14:49:48;1.53;;;1.00;;
80293;SDS011;69594;43.516;1.498;2023-06-10T14:52:14;1.58;;;1.00;;
80293;SDS011;69594;43.516;1.498;2023-06-10T14:54:39;1.87;;;0.87;;
80293;SDS011;69594;43.516;1.498;2023-06-10T14:57:06;1.20;;;0.70;;
80293;SDS011;69594;43.516;1.498;2023-06-10T14:59:32;2.05;;;0.73;;
80293;SDS011;69594;43.516;1.498;2023-06-10T15:01:58;1.65;;;0.98;;
80293;SDS011;69594;43.516;1.498;2023-06-10T15:07:00;4.10;;;2.50;;
80293;SDS011;69594;43.516;1.498;2023-06-10T15:09:26;2.45;;;0.90;;
80293;SDS011;69594;43.516;1.498;2023-06-10T15:11:52;2.33;;;1.13;;